Airfield :
LOGIN :

Register | Disclaimer

   EN    FR    IT 

 










Legend :    VFR   Marginal VFR   IFR   Intensive IFR   Very Intensive IFR
Visi :
Ceiling :
>= 8 km
>= 3000ft
5 to 8 km
1000 to 3000 ft
1500m to 5 km
500 to 1000 ft
800 to 1500m
200 to 500 ft
< 800m
< 200 ft
Symbols :   Thunderstorms  Fog  Heavy snow  Heavy precipitations  Wind > 20 kt
SIGMETs :     Misc.  Thunderstorms  Icing  Turbulence  Mountain Waves  Volcanic Ashes






- Airport Elevation : 935 ft


EBFS - Florennes

CURRENT METAR :
  • 082025Z AUTO 23008KT 9999 NCD 02/01 Q1000 BLU

EXPIRED METARs :
  • 081955Z AUTO 23009KT 9999 NCD 02/01 Q1000 BLU
  • 081925Z AUTO 22008KT 9999 NCD 02/01 Q1000 BLU
  • 081855Z AUTO 21008KT 9999 NCD 02/01 Q1000 BLU
  • 081825Z AUTO 21008KT 9999 NCD 02/01 Q1000 BLU
  • 081813Z AUTO 20007KT 9999 FEW015/// 02/01 Q0999 BLU
  • 081755Z AUTO 18005KT 9999 FEW015/// SCT019/// BKN042/// 02/01 Q0999 WHT

TAF TAF EBFS
Valid from the 08 at 19:00 until the 09 at 07:00 UTC


081541Z 0819/0907 23014KT 9999 FEW018 BKN025
BECMG 0823/0901 3500 BR SCT003 BKN005
TEMPO 0905/0907 3000 BR -RASN BKN002 BKN004
PROB30
TEMPO 0905/0907 2000 FZFG SN BKN001 BKN003



MET'MAP, your aeronautical weather chart ! - Copyright ORBIFLY December 2007 - Disclaimer

ORBIFLY MET'MAP TEAM :

Programming & Development : Alexandra Zaïnal
Concept & original design : Baudouin d'Aumeries
Assistance for programming : Marc-Olivier Méhu
Technical & hardware support : Manuel Goepfert

Contact : metmap@orbifly.com




SOURCES & CREDITS :

   NOAA